createdAt,value
2018-07-20T00:02:01.742Z,17.00
2018-07-20T00:04:29.798Z,16.90
2018-07-20T00:06:57.908Z,16.90
2018-07-20T00:09:25.957Z,16.80
2018-07-20T00:11:54.022Z,16.80
2018-07-20T00:14:22.675Z,16.80
2018-07-20T00:16:50.747Z,16.70
2018-07-20T00:19:18.816Z,16.70
2018-07-20T00:21:46.867Z,16.70
2018-07-20T00:24:14.919Z,16.60
2018-07-20T00:26:43.057Z,16.60
2018-07-20T00:29:11.130Z,16.60
2018-07-20T00:31:39.210Z,16.60
2018-07-20T00:34:07.282Z,16.60
2018-07-20T00:36:35.379Z,16.50
2018-07-20T00:39:03.727Z,16.50
2018-07-20T00:41:31.861Z,16.50
2018-07-20T00:43:59.880Z,16.50
2018-07-20T00:46:27.946Z,16.50
2018-07-20T00:48:56.083Z,16.40
2018-07-20T00:51:24.154Z,16.40
2018-07-20T00:53:52.225Z,16.40
2018-07-20T01:03:44.081Z,16.30
2018-07-20T01:06:12.151Z,16.40
2018-07-20T01:08:40.205Z,16.30
2018-07-20T01:11:08.342Z,16.30
2018-07-20T01:13:36.390Z,16.30
2018-07-20T01:16:04.544Z,16.30
2018-07-20T01:18:32.634Z,16.30
2018-07-20T01:21:00.705Z,16.20
2018-07-20T01:23:28.757Z,16.20
2018-07-20T01:25:56.855Z,16.20
2018-07-20T01:28:24.963Z,16.20
2018-07-20T01:30:53.050Z,16.20
2018-07-20T01:33:21.151Z,16.20
2018-07-20T01:35:49.235Z,16.20
2018-07-20T01:38:17.314Z,16.20
2018-07-20T01:40:45.415Z,16.10
2018-07-20T01:43:13.499Z,16.20
2018-07-20T01:45:41.578Z,16.20
2018-07-20T01:48:09.696Z,16.20
2018-07-20T01:50:37.864Z,16.10
2018-07-20T01:53:05.929Z,16.10
2018-07-20T01:55:34.072Z,16.10
2018-07-20T01:58:02.133Z,16.10
2018-07-20T02:00:30.231Z,16.10
2018-07-20T02:02:58.297Z,16.00
2018-07-20T02:05:26.361Z,16.00
2018-07-20T02:07:54.573Z,16.00
2018-07-20T02:10:22.686Z,16.00
2018-07-20T02:12:50.753Z,16.00
2018-07-20T02:15:18.815Z,16.00
2018-07-20T02:17:47.151Z,15.90
2018-07-20T02:20:15.203Z,16.00
2018-07-20T02:22:43.336Z,15.90
2018-07-20T02:25:11.407Z,15.90
2018-07-20T02:27:39.508Z,15.90
2018-07-20T02:30:07.859Z,15.90
2018-07-20T02:32:35.954Z,15.90
2018-07-20T02:35:04.024Z,15.90
2018-07-20T02:37:32.091Z,15.90
2018-07-20T02:40:00.163Z,15.90
2018-07-20T02:42:28.258Z,15.90
2018-07-20T02:44:56.380Z,15.80
2018-07-20T02:47:24.437Z,15.80
2018-07-20T02:49:52.500Z,15.80
2018-07-20T02:52:20.573Z,15.80
2018-07-20T02:54:48.670Z,15.80
2018-07-20T02:57:16.843Z,15.90
2018-07-20T02:59:44.916Z,15.90
2018-07-20T03:02:13.048Z,15.90
2018-07-20T03:04:41.181Z,15.80
2018-07-20T03:07:09.254Z,15.80
2018-07-20T03:09:37.359Z,15.80
2018-07-20T03:12:05.486Z,15.80
2018-07-20T03:14:33.567Z,15.80
2018-07-20T03:17:01.680Z,15.80
2018-07-20T03:19:29.758Z,15.80
2018-07-20T03:21:57.822Z,15.70
2018-07-20T03:24:25.974Z,15.70
2018-07-20T03:26:54.101Z,15.70
2018-07-20T03:29:22.192Z,15.60
2018-07-20T03:31:50.305Z,15.70
2018-07-20T03:34:18.414Z,15.70
2018-07-20T03:36:46.551Z,15.70
2018-07-20T03:39:14.664Z,15.70
2018-07-20T03:41:42.765Z,15.80
2018-07-20T03:44:10.902Z,15.80
2018-07-20T03:46:39.037Z,15.90
2018-07-20T03:49:07.278Z,15.90
2018-07-20T03:51:35.307Z,15.90
2018-07-20T03:54:03.367Z,16.00
2018-07-20T03:56:31.439Z,16.00
2018-07-20T03:58:59.588Z,16.10
2018-07-20T04:01:27.705Z,16.10
2018-07-20T04:03:55.818Z,16.10
2018-07-20T04:06:23.880Z,16.20
2018-07-20T04:08:51.992Z,16.20
2018-07-20T04:11:20.066Z,16.20
2018-07-20T04:13:48.158Z,16.30
2018-07-20T04:16:16.264Z,16.40
2018-07-20T04:18:44.372Z,16.50
2018-07-20T04:21:12.454Z,16.50
2018-07-20T04:23:40.560Z,16.60
2018-07-20T04:26:08.665Z,16.60
2018-07-20T04:28:36.746Z,16.70
2018-07-20T04:31:04.840Z,16.80
2018-07-20T04:33:32.919Z,16.80
2018-07-20T04:36:01.046Z,16.80
2018-07-20T04:38:29.136Z,17.00
2018-07-20T04:40:57.204Z,17.00
2018-07-20T04:43:25.322Z,17.10
2018-07-20T04:45:53.386Z,17.10
2018-07-20T04:48:21.531Z,17.10
2018-07-20T04:50:49.618Z,17.20
2018-07-20T04:53:17.735Z,17.20
2018-07-20T04:55:45.874Z,17.40
2018-07-20T04:58:14.023Z,17.40
2018-07-20T05:00:42.075Z,17.50
2018-07-20T05:03:10.148Z,17.60
2018-07-20T05:05:38.242Z,17.60
2018-07-20T05:08:06.398Z,17.60
2018-07-20T05:10:34.485Z,17.60
2018-07-20T05:13:02.606Z,17.70
2018-07-20T05:15:30.728Z,17.80
2018-07-20T05:17:58.869Z,18.00
2018-07-20T05:20:26.968Z,18.20
2018-07-20T05:22:55.043Z,18.30
2018-07-20T05:27:51.029Z,18.50
2018-07-20T05:30:19.178Z,18.60
2018-07-20T05:32:47.558Z,18.80
2018-07-20T05:35:15.649Z,18.90
2018-07-20T05:37:43.769Z,19.00
2018-07-20T05:40:11.972Z,19.20
2018-07-20T05:42:40.098Z,19.30
2018-07-20T05:45:08.428Z,19.60
2018-07-20T05:47:36.509Z,19.80
2018-07-20T05:50:05.601Z,20.10
2018-07-20T05:52:33.757Z,20.30
2018-07-20T05:55:01.860Z,20.40
2018-07-20T05:57:30.147Z,20.60
2018-07-20T05:59:58.283Z,20.70
2018-07-20T06:02:26.348Z,20.80
2018-07-20T06:04:54.454Z,21.00
2018-07-20T06:07:22.561Z,21.00
2018-07-20T06:09:50.644Z,21.10
2018-07-20T06:12:18.719Z,21.10
2018-07-20T06:14:46.782Z,21.20
2018-07-20T06:17:14.926Z,21.20
2018-07-20T06:19:43.100Z,21.20
2018-07-20T06:22:11.197Z,21.10
2018-07-20T06:24:39.328Z,21.30
2018-07-20T06:27:07.392Z,21.50
2018-07-20T06:29:35.538Z,21.70
2018-07-20T06:32:03.695Z,21.70
2018-07-20T06:34:31.775Z,21.60
2018-07-20T06:36:59.863Z,21.70
2018-07-20T06:39:27.979Z,21.70
2018-07-20T06:41:56.061Z,21.80
2018-07-20T06:44:24.188Z,21.70
2018-07-20T06:46:52.298Z,21.70
2018-07-20T06:49:20.393Z,21.90
2018-07-20T06:51:48.483Z,22.10
2018-07-20T06:54:16.570Z,22.30
2018-07-20T06:56:44.657Z,22.30
2018-07-20T06:59:12.762Z,22.40
2018-07-20T07:01:40.822Z,22.40
2018-07-20T07:04:08.895Z,22.40
2018-07-20T07:06:37.029Z,22.40
2018-07-20T07:09:07.359Z,22.30
2018-07-20T07:11:35.435Z,22.20
2018-07-20T07:14:03.569Z,22.10
2018-07-20T07:16:31.715Z,22.20
2018-07-20T07:18:59.814Z,22.30
2018-07-20T07:21:27.883Z,22.40
2018-07-20T07:26:23.862Z,22.60
2018-07-20T07:28:51.941Z,22.80
2018-07-20T07:31:20.020Z,22.90
2018-07-20T07:33:48.134Z,23.00
2018-07-20T07:36:16.265Z,23.00
2018-07-20T07:38:44.384Z,23.10
2018-07-20T07:41:12.476Z,23.00
2018-07-20T07:43:40.549Z,23.10
2018-07-20T07:46:08.737Z,23.30
2018-07-20T07:48:37.154Z,23.30
2018-07-20T07:51:05.301Z,23.40
2018-07-20T07:53:33.343Z,23.30
2018-07-20T07:58:29.395Z,23.40
2018-07-20T08:00:57.467Z,24.00
2018-07-20T08:03:25.666Z,24.50
2018-07-20T08:05:53.730Z,24.70
2018-07-20T08:08:21.798Z,24.80
2018-07-20T08:10:49.870Z,24.80
2018-07-20T08:13:18.463Z,24.90
2018-07-20T08:15:46.622Z,24.80
2018-07-20T08:18:14.700Z,24.80
2018-07-20T08:23:10.642Z,24.80
2018-07-20T08:28:06.612Z,24.90
2018-07-20T08:30:34.691Z,24.70
2018-07-20T08:33:02.780Z,24.60
2018-07-20T08:35:31.244Z,24.40
2018-07-20T08:37:59.304Z,24.30
2018-07-20T08:40:27.412Z,24.30
2018-07-20T08:42:55.470Z,24.10
2018-07-20T08:45:23.588Z,24.10
2018-07-20T08:47:51.754Z,24.10
2018-07-20T08:50:19.887Z,24.30
2018-07-20T08:52:47.980Z,24.50
2018-07-20T08:55:16.989Z,24.60
2018-07-20T08:57:45.052Z,24.60
2018-07-20T09:00:13.132Z,24.50
2018-07-20T09:02:41.218Z,24.50
2018-07-20T09:05:09.316Z,24.70
2018-07-20T09:10:05.461Z,25.00
2018-07-20T09:15:01.512Z,25.10
2018-07-20T09:17:29.642Z,25.20
2018-07-20T09:19:57.784Z,25.20
2018-07-20T09:22:25.870Z,25.10
2018-07-20T09:24:53.977Z,25.10
2018-07-20T09:27:22.052Z,25.00
2018-07-20T09:29:50.147Z,25.10
2018-07-20T09:32:18.221Z,25.10
2018-07-20T09:34:46.351Z,25.20
2018-07-20T09:37:14.507Z,25.40
2018-07-20T09:39:42.759Z,25.50
2018-07-20T09:42:10.937Z,25.60
2018-07-20T09:44:39.035Z,25.60
2018-07-20T09:47:07.158Z,25.60
2018-07-20T09:49:35.272Z,25.60
2018-07-20T09:52:03.448Z,25.60
2018-07-20T09:54:31.583Z,25.60
2018-07-20T09:56:59.946Z,25.60
2018-07-20T09:59:28.089Z,25.90
2018-07-20T10:01:56.549Z,25.80
2018-07-20T10:04:24.911Z,26.00
2018-07-20T10:09:21.097Z,26.20
2018-07-20T10:11:49.189Z,26.30
2018-07-20T10:14:17.265Z,26.30
2018-07-20T10:16:45.408Z,26.00
2018-07-20T10:19:13.525Z,26.00
2018-07-20T10:21:41.571Z,26.00
2018-07-20T10:24:09.653Z,26.20
2018-07-20T10:26:37.781Z,26.20
2018-07-20T10:29:05.890Z,26.30
2018-07-20T10:31:33.966Z,26.30
2018-07-20T10:34:02.045Z,26.40
2018-07-20T10:36:30.134Z,26.50
2018-07-20T10:38:58.280Z,26.60
2018-07-20T10:41:26.555Z,26.60
2018-07-20T10:43:54.626Z,26.60
2018-07-20T10:46:22.710Z,26.60
2018-07-20T10:48:50.856Z,26.70
2018-07-20T10:51:18.954Z,26.70
2018-07-20T10:53:47.091Z,26.70
2018-07-20T10:56:15.167Z,26.80
2018-07-20T10:58:43.243Z,26.90
2018-07-20T11:01:11.353Z,27.00
2018-07-20T11:03:39.431Z,27.00
2018-07-20T11:06:07.558Z,26.90
2018-07-20T11:13:32.064Z,27.20
2018-07-20T11:18:28.049Z,27.10
2018-07-20T11:20:56.143Z,27.00
2018-07-20T11:23:24.257Z,27.10
2018-07-20T11:25:52.344Z,27.10
2018-07-20T11:28:20.869Z,27.20
2018-07-20T11:30:48.934Z,27.30
2018-07-20T11:33:17.037Z,27.00
2018-07-20T11:35:45.344Z,27.10
2018-07-20T11:38:13.442Z,27.10
2018-07-20T11:40:41.538Z,27.20
2018-07-20T11:43:09.637Z,27.10
2018-07-20T11:45:37.769Z,27.20
2018-07-20T11:48:05.877Z,27.20
2018-07-20T11:50:33.980Z,27.50
2018-07-20T11:53:02.160Z,27.60
2018-07-20T11:55:30.273Z,27.50
2018-07-20T11:57:58.374Z,27.40
2018-07-20T12:00:26.567Z,27.50
2018-07-20T12:02:54.661Z,27.30
2018-07-20T12:05:22.805Z,27.60
2018-07-20T12:07:51.260Z,27.90
2018-07-20T12:10:19.385Z,28.00
2018-07-20T12:12:47.471Z,27.80
2018-07-20T12:17:43.915Z,27.70
2018-07-20T12:22:39.920Z,27.60
2018-07-20T12:25:08.055Z,27.70
2018-07-20T12:27:36.327Z,27.90
2018-07-20T12:30:05.260Z,27.90
2018-07-20T12:32:33.408Z,27.80
2018-07-20T12:35:01.476Z,27.70
2018-07-20T12:37:29.546Z,27.90
2018-07-20T12:39:57.648Z,27.90
2018-07-20T12:42:25.830Z,27.70
2018-07-20T12:44:54.333Z,27.20
2018-07-20T12:47:22.423Z,27.00
2018-07-20T12:49:50.594Z,27.00
2018-07-20T12:52:18.688Z,27.30
2018-07-20T12:54:46.722Z,27.40
2018-07-20T12:57:14.791Z,27.60
2018-07-20T12:59:43.268Z,27.70
2018-07-20T13:02:11.579Z,27.70
2018-07-20T13:04:40.113Z,27.80
2018-07-20T13:07:08.492Z,27.80
2018-07-20T13:09:36.961Z,27.80
2018-07-20T13:12:05.612Z,27.70
2018-07-20T13:19:30.839Z,27.10
2018-07-20T13:21:59.433Z,27.10
2018-07-20T13:24:27.836Z,27.20
2018-07-20T13:26:56.285Z,27.20
2018-07-20T13:29:24.426Z,27.20
2018-07-20T13:31:52.563Z,27.10
2018-07-20T13:34:20.656Z,27.00
2018-07-20T13:36:48.755Z,26.90
2018-07-20T13:39:16.916Z,26.90
2018-07-20T13:41:44.974Z,26.90
2018-07-20T13:44:13.116Z,26.80
2018-07-20T13:46:41.194Z,26.60
2018-07-20T13:49:09.282Z,26.50
2018-07-20T13:51:37.367Z,26.40
2018-07-20T13:54:05.938Z,26.40
2018-07-20T13:56:34.296Z,26.50
2018-07-20T13:59:02.351Z,26.50
2018-07-20T14:01:30.454Z,26.60
2018-07-20T14:03:58.664Z,26.70
2018-07-20T14:06:26.987Z,26.80
2018-07-20T14:08:55.100Z,26.90
2018-07-20T14:11:23.249Z,26.90
2018-07-20T14:13:51.576Z,26.80
2018-07-20T14:16:19.682Z,26.70
2018-07-20T14:18:47.865Z,26.60
2018-07-20T14:21:16.675Z,26.60
2018-07-20T14:23:44.869Z,26.80
2018-07-20T14:26:13.005Z,26.90
2018-07-20T14:28:41.106Z,27.00
2018-07-20T14:31:09.191Z,27.00
2018-07-20T14:33:37.371Z,27.00
2018-07-20T14:36:05.663Z,26.90
2018-07-20T14:38:33.771Z,26.70
2018-07-20T14:41:01.855Z,26.80
2018-07-20T14:43:29.959Z,26.90
2018-07-20T14:45:58.104Z,26.90
2018-07-20T14:48:26.338Z,26.90
2018-07-20T14:50:54.486Z,26.80
2018-07-20T14:53:22.650Z,26.80
2018-07-20T14:55:50.824Z,26.80
2018-07-20T14:58:19.056Z,26.70
2018-07-20T15:00:47.167Z,26.60
2018-07-20T15:03:15.277Z,26.70
2018-07-20T15:05:43.364Z,26.70
2018-07-20T15:08:11.415Z,26.80
2018-07-20T15:10:39.522Z,26.80
2018-07-20T15:13:07.656Z,26.80
2018-07-20T15:18:03.681Z,26.80
2018-07-20T15:20:31.840Z,26.70
2018-07-20T15:22:59.905Z,26.70
2018-07-20T15:25:28.041Z,26.80
2018-07-20T15:27:56.091Z,26.80
2018-07-20T15:30:24.189Z,26.70
2018-07-20T15:32:52.268Z,26.70
2018-07-20T15:35:20.362Z,26.60
2018-07-20T15:37:48.495Z,26.60
2018-07-20T15:42:44.554Z,26.60
2018-07-20T15:45:13.578Z,26.60
2018-07-20T15:47:41.664Z,26.60
2018-07-20T15:50:09.775Z,26.50
2018-07-20T15:55:06.081Z,26.60
2018-07-20T15:57:34.370Z,26.60
2018-07-20T16:00:02.566Z,26.60
2018-07-20T16:02:30.547Z,26.60
2018-07-20T16:04:58.656Z,26.60
2018-07-20T16:07:26.737Z,26.50
2018-07-20T16:09:54.823Z,26.50
2018-07-20T16:12:22.916Z,26.40
2018-07-20T16:14:51.000Z,26.40
2018-07-20T16:17:19.061Z,26.40
2018-07-20T16:19:47.153Z,26.50
2018-07-20T16:22:15.347Z,26.40
2018-07-20T16:27:11.662Z,26.40
2018-07-20T16:29:39.780Z,26.40
2018-07-20T16:32:08.017Z,26.40
2018-07-20T16:34:36.211Z,26.40
2018-07-20T16:37:04.306Z,26.40
2018-07-20T16:39:32.441Z,26.40
2018-07-20T16:42:00.595Z,26.40
2018-07-20T16:44:29.010Z,26.30
2018-07-20T16:46:57.164Z,26.20
2018-07-20T16:49:25.622Z,26.20
2018-07-20T16:51:53.692Z,26.20
2018-07-20T16:54:22.607Z,26.10
2018-07-20T16:56:50.730Z,26.10
2018-07-20T16:59:18.896Z,26.10
2018-07-20T17:01:47.013Z,26.10
2018-07-20T17:04:15.074Z,26.10
2018-07-20T17:06:43.190Z,26.00
2018-07-20T17:09:12.765Z,26.00
2018-07-20T17:11:41.231Z,25.90
2018-07-20T17:14:09.399Z,25.80
2018-07-20T17:19:05.974Z,25.80
2018-07-20T17:21:35.268Z,25.70
2018-07-20T17:24:03.329Z,25.70
2018-07-20T17:26:31.429Z,25.60
2018-07-20T17:28:59.515Z,25.60
2018-07-20T17:31:27.662Z,25.60
2018-07-20T17:33:55.856Z,25.50
2018-07-20T17:36:23.980Z,25.50
2018-07-20T17:38:52.093Z,25.50
2018-07-20T17:41:20.242Z,25.40
2018-07-20T17:43:48.336Z,25.40
2018-07-20T17:46:16.449Z,25.30
2018-07-20T17:48:44.617Z,25.20
2018-07-20T17:51:12.823Z,25.20
2018-07-20T17:53:41.731Z,25.10
2018-07-20T17:56:09.835Z,25.00
2018-07-20T17:58:37.906Z,25.00
2018-07-20T18:01:06.172Z,24.90
2018-07-20T18:03:34.232Z,24.90
2018-07-20T18:06:02.372Z,24.80
2018-07-20T18:08:30.457Z,24.80
2018-07-20T18:10:58.546Z,24.70
2018-07-20T18:13:26.662Z,24.70
2018-07-20T18:15:54.773Z,24.70
2018-07-20T18:18:22.858Z,24.60
2018-07-20T18:20:50.933Z,24.50
2018-07-20T18:23:19.027Z,24.40
2018-07-20T18:25:47.117Z,24.30
2018-07-20T18:28:15.248Z,24.20
2018-07-20T18:30:43.400Z,24.10
2018-07-20T18:33:11.583Z,24.00
2018-07-20T18:35:39.665Z,23.80
2018-07-20T18:38:07.780Z,23.80
2018-07-20T18:40:35.917Z,23.70
2018-07-20T18:43:04.021Z,23.60
2018-07-20T18:45:32.114Z,23.50
2018-07-20T18:48:00.225Z,23.50
2018-07-20T18:50:28.581Z,23.40
2018-07-20T18:52:56.725Z,23.30
2018-07-20T18:55:24.764Z,23.20
2018-07-20T18:57:52.842Z,23.20
2018-07-20T19:00:20.976Z,23.10
2018-07-20T19:02:49.058Z,23.00
2018-07-20T19:05:17.203Z,22.90
2018-07-20T19:07:45.225Z,22.90
2018-07-20T19:10:13.392Z,22.80
2018-07-20T19:12:41.511Z,22.70
2018-07-20T19:15:09.604Z,22.70
2018-07-20T19:17:37.719Z,22.60
2018-07-20T19:20:05.830Z,22.50
2018-07-20T19:22:33.963Z,22.50
2018-07-20T19:25:02.045Z,22.40
2018-07-20T19:27:30.145Z,22.30
2018-07-20T19:29:58.216Z,22.30
2018-07-20T19:32:26.461Z,22.20
2018-07-20T19:34:54.556Z,22.20
2018-07-20T19:37:22.722Z,22.10
2018-07-20T19:39:50.819Z,22.10
2018-07-20T19:42:18.927Z,22.00
2018-07-20T19:44:47.069Z,21.90
2018-07-20T19:47:15.274Z,21.90
2018-07-20T19:49:43.502Z,21.80
2018-07-20T19:52:11.593Z,21.80
2018-07-20T19:54:39.747Z,21.70
2018-07-20T19:57:07.864Z,21.70
2018-07-20T19:59:36.106Z,21.60
2018-07-20T20:02:04.197Z,21.50
2018-07-20T20:04:32.352Z,21.50
2018-07-20T20:07:00.933Z,21.40
2018-07-20T20:09:35.695Z,21.30
2018-07-20T20:12:04.150Z,21.30
2018-07-20T20:14:32.219Z,21.20
2018-07-20T20:17:00.351Z,21.00
2018-07-20T20:19:28.428Z,21.00
2018-07-20T20:21:56.645Z,21.00
2018-07-20T20:24:24.687Z,21.00
2018-07-20T20:26:52.759Z,21.00
2018-07-20T20:29:20.911Z,21.00
2018-07-20T20:31:48.995Z,20.90
2018-07-20T20:34:17.084Z,20.90
2018-07-20T20:36:45.165Z,20.70
2018-07-20T20:39:13.516Z,20.70
2018-07-20T20:41:41.762Z,20.50
2018-07-20T20:44:10.275Z,20.40
2018-07-20T20:46:38.912Z,20.50
2018-07-20T20:49:07.042Z,20.50
2018-07-20T20:51:35.163Z,20.50
2018-07-20T20:54:03.303Z,20.50
2018-07-20T20:56:31.470Z,20.50
2018-07-20T20:58:59.622Z,20.40
2018-07-20T21:01:27.719Z,20.40
2018-07-20T21:03:55.807Z,20.40
2018-07-20T21:06:23.894Z,20.40
2018-07-20T21:08:51.959Z,20.30
2018-07-20T21:11:20.029Z,20.30
2018-07-20T21:13:48.173Z,20.30
2018-07-20T21:16:16.289Z,20.20
2018-07-20T21:18:44.456Z,20.20
2018-07-20T21:21:12.522Z,20.20
2018-07-20T21:23:40.599Z,20.10
2018-07-20T21:26:08.675Z,20.10
2018-07-20T21:28:36.790Z,20.00
2018-07-20T21:31:04.846Z,20.00
2018-07-20T21:33:32.991Z,19.90
2018-07-20T21:36:01.157Z,19.90
2018-07-20T21:38:29.289Z,19.80
2018-07-20T21:40:57.404Z,19.80
2018-07-20T21:43:25.495Z,19.80
2018-07-20T21:45:53.606Z,19.70
2018-07-20T21:48:21.708Z,19.60
2018-07-20T21:50:49.836Z,19.60
2018-07-20T21:53:17.950Z,19.60
2018-07-20T21:55:46.063Z,19.50
2018-07-20T21:58:14.198Z,19.40
2018-07-20T22:00:42.317Z,19.40
2018-07-20T22:03:10.408Z,19.40
2018-07-20T22:05:38.487Z,19.30
2018-07-20T22:08:06.579Z,19.20
2018-07-20T22:10:34.630Z,19.20
2018-07-20T22:13:02.704Z,19.10
2018-07-20T22:15:30.770Z,19.10
2018-07-20T22:17:58.843Z,19.10
2018-07-20T22:20:26.965Z,19.00
2018-07-20T22:22:55.081Z,19.00
2018-07-20T22:25:23.144Z,19.00
2018-07-20T22:27:51.216Z,18.90
2018-07-20T22:30:19.291Z,18.90
2018-07-20T22:32:47.402Z,18.90
2018-07-20T22:35:15.494Z,18.80
2018-07-20T22:37:43.564Z,18.80
2018-07-20T22:40:11.639Z,18.70
2018-07-20T22:42:39.714Z,18.70
2018-07-20T22:45:07.802Z,18.60
2018-07-20T22:47:35.884Z,18.60
2018-07-20T22:50:04.582Z,18.50
2018-07-20T22:52:32.650Z,18.50
2018-07-20T22:55:00.754Z,18.40
2018-07-20T22:57:28.849Z,18.40
2018-07-20T22:59:56.959Z,18.40
2018-07-20T23:02:25.070Z,18.30
2018-07-20T23:04:53.129Z,18.20
2018-07-20T23:07:21.378Z,18.10
2018-07-20T23:09:49.528Z,18.10
2018-07-20T23:12:17.608Z,18.00
2018-07-20T23:14:45.725Z,18.00
2018-07-20T23:17:13.862Z,18.00
2018-07-20T23:19:41.966Z,18.00
2018-07-20T23:22:10.033Z,17.90
2018-07-20T23:24:38.152Z,17.90
2018-07-20T23:27:06.258Z,17.80
2018-07-20T23:29:34.416Z,17.80
2018-07-20T23:32:02.471Z,17.60
2018-07-20T23:34:30.589Z,17.60
2018-07-20T23:36:58.744Z,17.50
2018-07-20T23:39:26.815Z,17.50
2018-07-20T23:41:54.884Z,17.40
2018-07-20T23:44:22.963Z,17.40
2018-07-20T23:46:51.087Z,17.30
2018-07-20T23:51:53.619Z,17.30
2018-07-20T23:54:21.718Z,17.30
2018-07-20T23:56:49.796Z,17.30
2018-07-20T23:59:17.910Z,17.30
